createdAt,value
2022-08-23T00:01:57.298Z,95351.28
2022-08-23T00:04:35.068Z,95351.66
2022-08-23T00:07:02.516Z,95352.97
2022-08-23T00:09:29.351Z,95353.91
2022-08-23T00:12:12.064Z,95358.59
2022-08-23T00:14:41.866Z,95359.41
2022-08-23T00:17:13.159Z,95362.94
2022-08-23T00:19:59.659Z,95359.31
2022-08-23T00:22:26.298Z,95355.41
2022-08-23T00:24:52.865Z,95358.53
2022-08-23T00:27:19.437Z,95360.91
2022-08-23T00:29:50.936Z,95354.63
2022-08-23T00:32:23.527Z,95348.34
2022-08-23T00:34:51.216Z,95353.81
2022-08-23T00:37:18.735Z,95351.53
2022-08-23T00:39:46.332Z,95352.31
2022-08-23T00:42:51.571Z,95357.38
2022-08-23T00:45:25.803Z,95353.03
2022-08-23T00:47:53.070Z,95344.81
2022-08-23T00:50:32.097Z,95351.44
2022-08-23T00:53:16.926Z,95346.78
2022-08-23T00:55:48.747Z,95345.94
2022-08-23T00:58:18.598Z,95337.72
2022-08-23T01:00:46.784Z,95344.03
2022-08-23T01:03:13.667Z,95334.78
2022-08-23T01:05:49.308Z,95337.31
2022-08-23T01:08:16.320Z,95335.34
2022-08-23T01:10:49.872Z,95343.56
2022-08-23T01:13:39.656Z,95342.78
2022-08-23T01:16:16.875Z,95347.50
2022-08-23T01:18:44.163Z,95342.38
2022-08-23T01:21:24.164Z,95346.59
2022-08-23T01:23:55.832Z,95346.59
2022-08-23T01:26:24.678Z,95347.41
2022-08-23T01:28:52.837Z,95343.88
2022-08-23T01:31:20.808Z,95345.59
2022-08-23T01:33:56.849Z,95341.78
2022-08-23T01:36:23.514Z,95349.59
2022-08-23T01:38:52.111Z,95345.94
2022-08-23T01:41:18.885Z,95338.34
2022-08-23T01:43:45.497Z,95339.44
2022-08-23T01:46:22.494Z,95340.50
2022-08-23T01:48:50.772Z,95343.19
2022-08-23T01:51:18.469Z,95348.00
2022-08-23T01:53:46.189Z,95346.56
2022-08-23T01:56:15.908Z,95346.56
2022-08-23T01:58:42.546Z,95352.41
2022-08-23T02:01:10.583Z,95351.38
2022-08-23T02:03:37.272Z,95353.47
2022-08-23T02:06:04.879Z,95355.06
2022-08-23T02:08:32.198Z,95354.97
2022-08-23T02:11:07.126Z,95353.38
2022-08-23T02:13:33.663Z,95354.13
2022-08-23T02:16:00.481Z,95359.97
2022-08-23T02:18:27.111Z,95365.81
2022-08-23T02:20:53.770Z,95366.94
2022-08-23T02:23:21.491Z,95362.53
2022-08-23T02:25:48.887Z,95371.47
2022-08-23T02:28:15.974Z,95369.06
2022-08-23T02:30:44.959Z,95372.88
2022-08-23T02:33:12.142Z,95362.19
2022-08-23T02:35:39.696Z,95375.00
2022-08-23T02:38:08.831Z,95363.91
2022-08-23T02:40:36.408Z,95375.13
2022-08-23T02:43:04.788Z,95379.72
2022-08-23T02:45:32.061Z,95387.84
2022-08-23T02:47:59.515Z,95388.91
2022-08-23T02:50:34.185Z,95393.50
2022-08-23T02:53:00.948Z,95397.75
2022-08-23T02:55:28.496Z,95401.19
2022-08-23T02:57:55.567Z,95396.72
2022-08-23T03:00:23.140Z,95397.09
2022-08-23T03:02:50.231Z,95401.31
2022-08-23T03:05:17.871Z,95396.19
2022-08-23T03:07:45.223Z,95395.75
2022-08-23T03:10:13.193Z,95402.72
2022-08-23T03:12:46.162Z,95399.88
2022-08-23T03:15:13.399Z,95396.72
2022-08-23T03:17:39.985Z,95400.16
2022-08-23T03:20:09.878Z,95393.44
2022-08-23T03:22:36.621Z,95395.28
2022-08-23T03:25:05.255Z,95392.44
2022-08-23T03:27:44.731Z,95390.75
2022-08-23T03:30:19.157Z,95401.59
2022-08-23T03:32:51.947Z,95397.19
2022-08-23T03:35:18.947Z,95398.69
2022-08-23T03:37:45.833Z,95410.34
2022-08-23T03:40:13.944Z,95413.75
2022-08-23T03:42:40.655Z,95414.81
2022-08-23T03:45:07.801Z,95415.94
2022-08-23T03:47:34.511Z,95416.97
2022-08-23T03:50:01.113Z,95421.22
2022-08-23T03:52:27.806Z,95416.44
2022-08-23T03:54:54.526Z,95429.22
2022-08-23T03:57:21.187Z,95427.16
2022-08-23T03:59:47.958Z,95430.59
2022-08-23T04:02:15.288Z,95441.00
2022-08-23T04:04:42.434Z,95442.47
2022-08-23T04:07:41.588Z,95445.44
2022-08-23T04:10:09.734Z,95444.53
2022-08-23T04:12:39.400Z,95449.13
2022-08-23T04:15:12.296Z,95453.31
2022-08-23T04:17:40.618Z,95455.94
2022-08-23T04:20:07.779Z,95455.47
2022-08-23T04:22:40.022Z,95465.94
2022-08-23T04:25:09.989Z,95463.53
2022-08-23T04:27:54.805Z,95466.63
2022-08-23T04:30:22.055Z,95471.28
2022-08-23T04:32:51.202Z,95473.59
2022-08-23T04:35:17.905Z,95470.03
2022-08-23T04:37:44.627Z,95473.09
2022-08-23T04:40:12.328Z,95469.25
2022-08-23T04:42:42.138Z,95469.59
2022-08-23T04:45:09.210Z,95472.31
2022-08-23T04:47:38.403Z,95478.91
2022-08-23T04:50:07.630Z,95484.38
2022-08-23T04:52:35.463Z,95480.53
2022-08-23T04:55:02.089Z,95487.59
2022-08-23T04:57:48.868Z,95485.66
2022-08-23T05:00:22.136Z,95487.69
2022-08-23T05:02:56.204Z,95490.09
2022-08-23T05:05:23.826Z,95497.59
2022-08-23T05:07:50.446Z,95494.22
2022-08-23T05:10:17.268Z,95502.06
2022-08-23T05:12:48.052Z,95502.16
2022-08-23T05:15:16.429Z,95499.88
2022-08-23T05:17:46.653Z,95507.06
2022-08-23T05:20:13.317Z,95512.66
2022-08-23T05:22:42.226Z,95509.34
2022-08-23T05:25:31.284Z,95515.25
2022-08-23T05:27:58.160Z,95510.34
2022-08-23T05:30:24.848Z,95507.38
2022-08-23T05:32:51.503Z,95511.00
2022-08-23T05:35:18.879Z,95516.69
2022-08-23T05:37:46.347Z,95509.06
2022-08-23T05:40:13.015Z,95507.31
2022-08-23T05:42:53.903Z,95515.72
2022-08-23T05:45:21.753Z,95521.41
2022-08-23T05:47:49.784Z,95512.28
2022-08-23T05:50:25.638Z,95511.66
2022-08-23T05:52:52.185Z,95511.84
2022-08-23T05:55:19.743Z,95520.28
2022-08-23T05:57:48.769Z,95519.69
2022-08-23T06:00:17.886Z,95522.63
2022-08-23T06:02:48.316Z,95522.81
2022-08-23T06:05:17.310Z,95524.16
2022-08-23T06:07:45.167Z,95527.09
2022-08-23T06:10:16.302Z,95527.28
2022-08-23T06:12:48.537Z,95527.47
2022-08-23T06:15:15.321Z,95535.50
2022-08-23T06:17:42.360Z,95524.28
2022-08-23T06:20:10.045Z,95524.47
2022-08-23T06:22:51.615Z,95520.75
2022-08-23T06:25:18.156Z,95526.41
2022-08-23T06:27:55.405Z,95527.72
2022-08-23T06:30:23.042Z,95521.63
2022-08-23T06:32:55.832Z,95522.56
2022-08-23T06:35:38.957Z,95534.19
2022-08-23T06:38:09.779Z,95526.13
2022-08-23T06:41:10.107Z,95535.75
2022-08-23T06:43:58.840Z,95530.06
2022-08-23T06:46:44.086Z,95531.47
2022-08-23T06:49:11.537Z,95537.09
2022-08-23T06:51:41.529Z,95540.00
2022-08-23T06:54:17.813Z,95540.94
2022-08-23T06:57:01.976Z,95543.47
2022-08-23T06:59:31.503Z,95541.69
2022-08-23T07:02:03.688Z,95536.31
2022-08-23T07:04:48.799Z,95539.25
2022-08-23T07:07:39.557Z,95538.22
2022-08-23T07:10:12.188Z,95540.75
2022-08-23T07:12:40.719Z,95540.88
2022-08-23T07:15:08.272Z,95541.03
2022-08-23T07:17:34.872Z,95541.16
2022-08-23T07:20:01.672Z,95544.09
2022-08-23T07:22:28.490Z,95542.28
2022-08-23T07:24:55.317Z,95547.88
2022-08-23T07:27:23.192Z,95545.28
2022-08-23T07:29:59.974Z,95549.72
2022-08-23T07:32:26.964Z,95555.78
2022-08-23T07:34:56.167Z,95548.47
2022-08-23T07:37:23.518Z,95554.88
2022-08-23T07:39:50.887Z,95558.16
2022-08-23T07:42:24.245Z,95555.16
2022-08-23T07:44:54.216Z,95556.84
2022-08-23T07:47:22.870Z,95561.66
2022-08-23T07:49:49.538Z,95550.78
2022-08-23T07:52:16.179Z,95560.34
2022-08-23T07:54:48.617Z,95566.75
2022-08-23T07:57:30.995Z,95569.22
2022-08-23T08:00:30.301Z,95566.56
2022-08-23T08:03:15.310Z,95571.72
2022-08-23T08:06:07.272Z,95566.28
2022-08-23T08:08:33.955Z,95572.22
2022-08-23T08:11:00.839Z,95573.88
2022-08-23T08:13:27.505Z,95578.31
2022-08-23T08:15:54.458Z,95573.63
2022-08-23T08:18:24.497Z,95572.94
2022-08-23T08:21:14.567Z,95572.63
2022-08-23T08:24:17.568Z,95572.69
2022-08-23T08:26:48.524Z,95568.84
2022-08-23T08:29:16.117Z,95578.41
2022-08-23T08:31:45.442Z,95578.47
2022-08-23T08:34:13.034Z,95578.94
2022-08-23T08:36:43.963Z,95577.00
2022-08-23T08:39:20.213Z,95585.41
2022-08-23T08:42:04.751Z,95582.28
2022-08-23T08:44:47.249Z,95581.56
2022-08-23T08:47:39.775Z,95588.31
2022-08-23T08:50:39.922Z,95585.63
2022-08-23T08:53:15.200Z,95593.63
2022-08-23T08:56:32.683Z,95585.03
2022-08-23T08:59:19.848Z,95583.50
2022-08-23T09:01:47.124Z,95581.94
2022-08-23T09:04:19.792Z,95571.75
2022-08-23T09:06:58.978Z,95574.97
2022-08-23T09:09:44.500Z,95574.59
2022-08-23T09:13:09.959Z,95579.03
2022-08-23T09:15:40.745Z,95572.78
2022-08-23T09:18:13.697Z,95572.81
2022-08-23T09:20:42.145Z,95571.66
2022-08-23T09:23:20.371Z,95572.88
2022-08-23T09:25:55.819Z,95570.91
2022-08-23T09:28:34.201Z,95573.28
2022-08-23T09:31:01.145Z,95562.28
2022-08-23T09:33:40.325Z,95570.19
2022-08-23T09:36:22.827Z,95567.84
2022-08-23T09:38:56.155Z,95568.66
2022-08-23T09:41:28.055Z,95561.19
2022-08-23T09:43:57.503Z,95571.09
2022-08-23T09:46:30.237Z,95559.28
2022-08-23T09:48:58.480Z,95569.22
2022-08-23T09:51:35.092Z,95556.19
2022-08-23T09:54:05.575Z,95560.97
2022-08-23T09:56:40.469Z,95568.88
2022-08-23T09:59:28.133Z,95563.34
2022-08-23T10:02:04.224Z,95563.38
2022-08-23T10:04:44.270Z,95564.97
2022-08-23T10:07:34.116Z,95568.50
2022-08-23T10:10:24.770Z,95566.16
2022-08-23T10:12:56.005Z,95561.00
2022-08-23T10:15:46.868Z,95565.38
2022-08-23T10:18:16.682Z,95565.03
2022-08-23T10:21:03.002Z,95572.16
2022-08-23T10:24:13.108Z,95564.63
2022-08-23T10:26:46.533Z,95561.47
2022-08-23T10:29:36.912Z,95558.28
2022-08-23T10:32:22.654Z,95548.81
2022-08-23T10:35:04.908Z,95551.97
2022-08-23T10:37:46.456Z,95558.28
2022-08-23T10:40:20.336Z,95543.25
2022-08-23T10:43:06.635Z,95553.16
2022-08-23T10:45:37.120Z,95543.25
2022-08-23T10:48:24.479Z,95547.97
2022-08-23T10:51:07.983Z,95549.56
2022-08-23T10:53:45.886Z,95547.97
2022-08-23T10:56:14.953Z,95543.22
2022-08-23T10:58:52.628Z,95544.78
2022-08-23T11:01:45.867Z,95535.72
2022-08-23T11:04:24.623Z,95538.44
2022-08-23T11:07:21.735Z,95543.19
2022-08-23T11:10:07.278Z,95548.72
2022-08-23T11:12:54.412Z,95551.44
2022-08-23T11:15:38.014Z,95540.34
2022-08-23T11:18:41.378Z,95531.63
2022-08-23T11:21:37.180Z,95534.34
2022-08-23T11:24:05.869Z,95528.00
2022-08-23T11:26:36.665Z,95530.78
2022-08-23T11:29:06.080Z,95525.59
2022-08-23T11:31:48.931Z,95533.13
2022-08-23T11:34:43.256Z,95532.69
2022-08-23T11:37:19.232Z,95527.13
2022-08-23T11:39:58.328Z,95527.13
2022-08-23T11:42:39.900Z,95525.47
2022-08-23T11:45:26.998Z,95528.22
2022-08-23T11:48:12.400Z,95530.94
2022-08-23T11:50:57.405Z,95528.94
2022-08-23T11:53:54.835Z,95524.53
2022-08-23T11:56:33.108Z,95523.28
2022-08-23T11:59:21.220Z,95523.63
2022-08-23T12:01:50.764Z,95531.09
2022-08-23T12:04:41.935Z,95527.47
2022-08-23T12:07:12.568Z,95525.09
2022-08-23T12:09:43.305Z,95521.91
2022-08-23T12:12:25.363Z,95521.84
2022-08-23T12:14:58.139Z,95529.72
2022-08-23T12:17:24.869Z,95522.53
2022-08-23T12:19:58.011Z,95517.75
2022-08-23T12:22:30.635Z,95517.31
2022-08-23T12:25:04.271Z,95530.72
2022-08-23T12:27:41.295Z,95523.59
2022-08-23T12:30:17.741Z,95521.91
2022-08-23T12:32:54.987Z,95527.03
2022-08-23T12:35:33.794Z,95517.44
2022-08-23T12:38:07.797Z,95516.59
2022-08-23T12:40:45.643Z,95519.78
2022-08-23T12:43:23.743Z,95513.50
2022-08-23T12:46:01.914Z,95509.13
2022-08-23T12:48:31.809Z,95509.50
2022-08-23T12:51:10.627Z,95510.63
2022-08-23T12:53:44.485Z,95511.41
2022-08-23T12:56:19.118Z,95503.00
2022-08-23T12:58:51.209Z,95513.25
2022-08-23T13:01:23.765Z,95506.47
2022-08-23T13:04:14.197Z,95496.94
2022-08-23T13:06:46.739Z,95497.72
2022-08-23T13:09:25.193Z,95490.97
2022-08-23T13:11:52.501Z,95492.13
2022-08-23T13:14:30.932Z,95499.59
2022-08-23T13:17:32.199Z,95489.59
2022-08-23T13:20:21.948Z,95495.09
2022-08-23T13:23:07.911Z,95491.44
2022-08-23T13:25:38.161Z,95478.69
2022-08-23T13:28:26.528Z,95487.41
2022-08-23T13:31:06.726Z,95479.84
2022-08-23T13:33:33.861Z,95468.25
2022-08-23T13:36:21.360Z,95477.06
2022-08-23T13:38:48.800Z,95467.09
2022-08-23T13:41:39.071Z,95463.94
2022-08-23T13:44:09.389Z,95473.81
2022-08-23T13:46:45.225Z,95467.44
2022-08-23T13:49:22.165Z,95464.22
2022-08-23T13:52:33.002Z,95478.03
2022-08-23T13:54:51.058Z,95475.56
2022-08-23T13:57:21.463Z,95468.78
2022-08-23T13:59:55.255Z,95465.09
2022-08-23T14:02:23.556Z,95471.75
2022-08-23T14:04:50.463Z,95464.97
2022-08-23T14:07:17.565Z,95469.63
2022-08-23T14:09:44.133Z,95462.94
2022-08-23T14:12:23.923Z,95458.16
2022-08-23T14:14:50.753Z,95464.03
2022-08-23T14:17:20.609Z,95457.19
2022-08-23T14:20:31.946Z,95449.50
2022-08-23T14:22:34.908Z,95448.91
2022-08-23T14:25:01.782Z,95455.56
2022-08-23T14:27:28.425Z,95454.72
2022-08-23T14:29:55.089Z,95453.94
2022-08-23T14:32:21.836Z,95455.84
2022-08-23T14:34:48.420Z,95450.94
2022-08-23T14:38:02.766Z,95454.22
2022-08-23T14:40:01.971Z,95445.59
2022-08-23T14:42:28.923Z,95447.75
2022-08-23T14:44:55.615Z,95453.06
2022-08-23T14:47:22.275Z,95453.56
2022-08-23T14:49:53.281Z,95446.03
2022-08-23T14:52:21.135Z,95448.53
2022-08-23T14:54:48.107Z,95450.88
2022-08-23T14:57:14.790Z,95451.84
2022-08-23T14:59:41.435Z,95448.53
2022-08-23T15:02:11.848Z,95450.03
2022-08-23T15:04:38.956Z,95448.69
2022-08-23T15:07:21.420Z,95447.50
2022-08-23T15:09:51.376Z,95445.38
2022-08-23T15:15:12.191Z,95445.31
2022-08-23T15:17:52.424Z,95447.00
2022-08-23T15:20:20.613Z,95450.47
2022-08-23T15:22:55.426Z,95448.56
2022-08-23T15:25:24.315Z,95445.22
2022-08-23T15:27:51.546Z,95445.34
2022-08-23T15:30:18.694Z,95438.72
2022-08-23T15:32:52.304Z,95442.53
2022-08-23T15:35:23.733Z,95441.97
2022-08-23T15:37:50.358Z,95441.31
2022-08-23T15:40:17.127Z,95434.25
2022-08-23T15:42:43.811Z,95445.53
2022-08-23T15:45:11.240Z,95446.09
2022-08-23T15:47:49.135Z,95442.97
2022-08-23T15:50:19.414Z,95451.25
2022-08-23T15:52:46.097Z,95449.25
2022-08-23T15:55:12.850Z,95451.03
2022-08-23T15:57:44.765Z,95442.38
2022-08-23T16:00:13.425Z,95446.78
2022-08-23T16:03:04.450Z,95440.59
2022-08-23T16:05:26.963Z,95439.00
2022-08-23T16:07:57.889Z,95433.94
2022-08-23T16:10:28.165Z,95435.75
2022-08-23T16:12:55.061Z,95442.13
2022-08-23T16:15:22.766Z,95439.91
2022-08-23T16:17:49.607Z,95443.25
2022-08-23T16:20:16.351Z,95435.94
2022-08-23T16:22:43.234Z,95430.88
2022-08-23T16:25:10.636Z,95446.59
2022-08-23T16:27:37.787Z,95441.75
2022-08-23T16:30:06.292Z,95447.25
2022-08-23T16:32:32.941Z,95443.66
2022-08-23T16:34:59.467Z,95439.59
2022-08-23T16:37:26.016Z,95443.13
2022-08-23T16:39:52.788Z,95443.44
2022-08-23T16:42:20.008Z,95442.41
2022-08-23T16:44:46.706Z,95448.69
2022-08-23T16:47:13.378Z,95447.56
2022-08-23T16:49:40.146Z,95452.34
2022-08-23T16:52:06.823Z,95455.47
2022-08-23T16:54:33.488Z,95458.47
2022-08-23T16:57:00.041Z,95454.31
2022-08-23T16:59:26.627Z,95460.47
2022-08-23T17:01:59.860Z,95462.47
2022-08-23T17:04:30.557Z,95464.38
2022-08-23T17:06:58.423Z,95466.09
2022-08-23T17:09:27.007Z,95462.94
2022-08-23T17:11:54.832Z,95469.78
2022-08-23T17:14:21.564Z,95476.41
2022-08-23T17:16:48.287Z,95470.66
2022-08-23T17:19:14.991Z,95464.28
2022-08-23T17:21:42.565Z,95469.22
2022-08-23T17:24:09.563Z,95464.94
2022-08-23T17:26:36.740Z,95473.94
2022-08-23T17:29:04.035Z,95474.53
2022-08-23T17:31:30.614Z,95465.78
2022-08-23T17:33:57.204Z,95463.56
2022-08-23T17:36:40.471Z,95477.63
2022-08-23T17:39:10.301Z,95481.91
2022-08-23T17:41:38.572Z,95482.06
2022-08-23T17:44:07.593Z,95476.81
2022-08-23T17:46:35.684Z,95481.66
2022-08-23T17:49:02.301Z,95480.59
2022-08-23T17:51:29.165Z,95478.47
2022-08-23T17:53:55.782Z,95488.84
2022-08-23T17:56:22.679Z,95494.72
2022-08-23T17:58:49.299Z,95497.81
2022-08-23T18:01:16.155Z,95496.81
2022-08-23T18:03:42.760Z,95508.06
2022-08-23T18:06:16.413Z,95507.16
2022-08-23T18:08:44.356Z,95501.47
2022-08-23T18:11:10.934Z,95511.16
2022-08-23T18:13:37.783Z,95515.16
2022-08-23T18:16:04.552Z,95510.78
2022-08-23T18:18:31.092Z,95518.28
2022-08-23T18:20:57.904Z,95528.06
2022-08-23T18:23:24.616Z,95523.09
2022-08-23T18:25:51.274Z,95530.81
2022-08-23T18:28:17.875Z,95534.53
2022-08-23T18:30:53.383Z,95536.25
2022-08-23T18:33:23.766Z,95549.41
2022-08-23T18:35:53.368Z,95548.66
2022-08-23T18:38:19.901Z,95547.56
2022-08-23T18:40:47.989Z,95553.50
2022-08-23T18:43:18.939Z,95551.16
2022-08-23T18:45:47.517Z,95555.91
2022-08-23T18:48:14.360Z,95563.06
2022-08-23T18:50:41.900Z,95555.13
2022-08-23T18:53:09.676Z,95562.25
2022-08-23T18:55:36.607Z,95562.59
2022-08-23T18:58:04.314Z,95565.34
2022-08-23T19:00:30.919Z,95567.69
2022-08-23T19:02:58.852Z,95576.41
2022-08-23T19:05:25.633Z,95578.72
2022-08-23T19:07:52.243Z,95579.47
2022-08-23T19:10:20.585Z,95580.97
2022-08-23T19:12:51.809Z,95578.94
2022-08-23T19:15:21.460Z,95593.13
2022-08-23T19:17:48.235Z,95588.34
2022-08-23T19:20:15.924Z,95591.84
2022-08-23T19:22:42.453Z,95589.84
2022-08-23T19:25:09.705Z,95598.88
2022-08-23T19:27:36.323Z,95601.56
2022-08-23T19:30:06.579Z,95603.47
2022-08-23T19:32:33.274Z,95605.75
2022-08-23T19:35:00.025Z,95602.94
2022-08-23T19:37:27.361Z,95593.00
2022-08-23T19:39:55.762Z,95601.22
2022-08-23T19:42:22.895Z,95610.25
2022-08-23T19:44:49.950Z,95608.97
2022-08-23T19:47:19.744Z,95607.75
2022-08-23T19:49:47.525Z,95615.94
2022-08-23T19:52:14.773Z,95615.50
2022-08-23T19:54:41.400Z,95616.56
2022-08-23T19:57:08.066Z,95620.06
2022-08-23T19:59:37.582Z,95626.25
2022-08-23T20:02:05.053Z,95625.81
2022-08-23T20:04:33.185Z,95630.09
2022-08-23T20:07:01.510Z,95636.72
2022-08-23T20:09:29.642Z,95639.00
2022-08-23T20:11:56.666Z,95636.59
2022-08-23T20:14:26.307Z,95630.97
2022-08-23T20:16:54.917Z,95646.69
2022-08-23T20:19:21.774Z,95638.75
2022-08-23T20:21:48.440Z,95647.69
2022-08-23T20:24:16.430Z,95643.31
2022-08-23T20:26:44.005Z,95643.84
2022-08-23T20:29:21.663Z,95645.88
2022-08-23T20:31:57.622Z,95651.34
2022-08-23T20:34:27.116Z,95655.19
2022-08-23T20:36:55.252Z,95652.75
2022-08-23T20:39:24.182Z,95663.72
2022-08-23T20:41:52.399Z,95653.00
2022-08-23T20:44:22.885Z,95663.16
2022-08-23T20:46:53.913Z,95661.91
2022-08-23T20:49:23.245Z,95664.59
2022-08-23T20:51:50.023Z,95671.22
2022-08-23T20:54:17.438Z,95674.28
2022-08-23T20:56:43.971Z,95665.53
2022-08-23T20:59:10.722Z,95667.84
2022-08-23T21:01:37.453Z,95665.41
2022-08-23T21:04:04.918Z,95663.78
2022-08-23T21:06:38.705Z,95660.09
2022-08-23T21:09:05.262Z,95665.19
2022-08-23T21:11:31.824Z,95659.97
2022-08-23T21:13:58.667Z,95656.38
2022-08-23T21:16:25.967Z,95659.41
2022-08-23T21:18:54.386Z,95662.47
2022-08-23T21:21:26.006Z,95656.13
2022-08-23T21:23:53.753Z,95662.34
2022-08-23T21:26:20.873Z,95664.56
2022-08-23T21:28:47.660Z,95648.00
2022-08-23T21:31:17.860Z,95658.13
2022-08-23T21:33:44.724Z,95658.84
2022-08-23T21:36:16.904Z,95654.88
2022-08-23T21:38:43.776Z,95659.50
2022-08-23T21:41:32.208Z,95659.03
2022-08-23T21:43:59.729Z,95651.50
2022-08-23T21:46:26.584Z,95645.13
2022-08-23T21:48:53.325Z,95650.56
2022-08-23T21:51:20.206Z,95652.44
2022-08-23T21:53:46.794Z,95648.03
2022-08-23T21:56:13.922Z,95648.31
2022-08-23T21:58:40.592Z,95649.03
2022-08-23T22:01:07.160Z,95653.69
2022-08-23T22:03:35.740Z,95645.72
2022-08-23T22:06:03.575Z,95653.88
2022-08-23T22:08:30.523Z,95651.06
2022-08-23T22:10:58.149Z,95651.38
2022-08-23T22:13:28.085Z,95658.28
2022-08-23T22:15:54.719Z,95651.91
2022-08-23T22:18:21.421Z,95653.78
2022-08-23T22:20:47.978Z,95655.22
2022-08-23T22:23:14.559Z,95660.59
2022-08-23T22:25:41.295Z,95655.41
2022-08-23T22:28:07.996Z,95665.94
2022-08-23T22:30:34.731Z,95667.03
2022-08-23T22:33:01.430Z,95660.63
2022-08-23T22:35:28.072Z,95654.28
2022-08-23T22:38:12.853Z,95655.34
2022-08-23T22:40:40.588Z,95661.91
2022-08-23T22:43:07.175Z,95656.34
2022-08-23T22:45:33.782Z,95657.41
2022-08-23T22:48:00.780Z,95657.34
2022-08-23T22:50:27.392Z,95665.47
2022-08-23T22:52:54.017Z,95662.28
2022-08-23T22:55:20.607Z,95663.00
2022-08-23T22:57:47.161Z,95658.22
2022-08-23T23:00:13.948Z,95665.19
2022-08-23T23:02:40.758Z,95663.19
2022-08-23T23:05:07.869Z,95662.72
2022-08-23T23:07:34.372Z,95660.34
2022-08-23T23:10:00.997Z,95664.97
2022-08-23T23:12:27.546Z,95649.63
2022-08-23T23:14:54.091Z,95656.63
2022-08-23T23:17:20.612Z,95649.91
2022-08-23T23:19:47.235Z,95655.31
2022-08-23T23:22:13.823Z,95648.94
2022-08-23T23:24:41.053Z,95652.03
2022-08-23T23:27:08.168Z,95653.50
2022-08-23T23:29:35.018Z,95647.91
2022-08-23T23:32:01.665Z,95652.19
2022-08-23T23:34:28.398Z,95650.94
2022-08-23T23:36:58.598Z,95648.09
2022-08-23T23:39:26.916Z,95648.81
2022-08-23T23:41:54.314Z,95645.94
2022-08-23T23:44:31.128Z,95644.72
2022-08-23T23:46:59.490Z,95639.16
2022-08-23T23:49:32.406Z,95639.03
2022-08-23T23:52:00.831Z,95643.31
2022-08-23T23:54:27.497Z,95637.69
2022-08-23T23:56:54.139Z,95641.97
2022-08-23T23:59:20.765Z,95634.78
